createdAt,value
2022-11-06T00:01:45.567Z,98123.63
2022-11-06T00:03:46.878Z,98127.00
2022-11-06T00:06:06.933Z,98127.06
2022-11-06T00:08:08.212Z,98130.53
2022-11-06T00:10:09.520Z,98125.28
2022-11-06T00:12:10.785Z,98128.69
2022-11-06T00:14:12.072Z,98127.94
2022-11-06T00:16:13.578Z,98125.34
2022-11-06T00:18:15.216Z,98095.63
2022-11-06T00:20:16.921Z,98135.94
2022-11-06T00:22:18.265Z,98140.00
2022-11-06T00:24:19.533Z,98144.84
2022-11-06T00:26:20.820Z,98139.50
2022-11-06T00:28:22.108Z,98004.13
2022-11-06T00:30:23.810Z,98124.66
2022-11-06T00:32:25.139Z,98125.13
2022-11-06T00:34:26.479Z,98113.84
2022-11-06T00:36:27.832Z,98125.75
2022-11-06T00:38:29.108Z,98126.66
2022-11-06T00:40:30.447Z,98113.84
2022-11-06T00:42:31.903Z,98124.03
2022-11-06T00:44:33.184Z,98129.13
2022-11-06T00:46:34.511Z,98135.09
2022-11-06T00:48:35.810Z,98131.63
2022-11-06T00:50:37.102Z,98125.56
2022-11-06T00:52:38.421Z,98131.25
2022-11-06T00:54:39.850Z,98119.94
2022-11-06T00:56:41.125Z,98119.66
2022-11-06T00:58:42.468Z,98126.75
2022-11-06T01:00:43.731Z,98124.66
2022-11-06T01:02:45.575Z,98121.16
2022-11-06T01:04:47.248Z,98119.31
2022-11-06T01:06:48.559Z,98115.81
2022-11-06T01:08:49.895Z,98114.97
2022-11-06T01:10:51.174Z,98118.50
2022-11-06T01:12:52.481Z,98114.13
2022-11-06T01:14:53.846Z,98113.31
2022-11-06T01:16:55.172Z,98100.53
2022-11-06T01:18:56.446Z,98103.09
2022-11-06T01:20:57.760Z,98108.22
2022-11-06T01:22:59.028Z,98103.09
2022-11-06T01:25:00.828Z,98098.03
2022-11-06T01:29:23.505Z,98103.44
2022-11-06T01:31:24.768Z,98106.28
2022-11-06T01:33:26.028Z,98111.53
2022-11-06T01:35:27.340Z,98099.41
2022-11-06T01:37:28.618Z,98109.81
2022-11-06T01:39:29.897Z,98100.91
2022-11-06T01:41:31.230Z,98103.28
2022-11-06T01:43:32.485Z,98096.41
2022-11-06T01:45:33.779Z,98099.84
2022-11-06T01:47:35.092Z,98105.81
2022-11-06T01:49:36.404Z,98104.22
2022-11-06T01:51:37.677Z,98100.03
2022-11-06T01:53:38.987Z,98096.66
2022-11-06T01:55:40.312Z,98098.44
2022-11-06T01:57:41.580Z,98095.16
2022-11-06T01:59:42.916Z,98096.03
2022-11-06T02:01:44.302Z,98096.03
2022-11-06T02:03:45.873Z,98086.59
2022-11-06T02:05:47.148Z,98091.66
2022-11-06T02:07:48.471Z,98100.03
2022-11-06T02:09:49.765Z,98093.91
2022-11-06T02:11:51.038Z,98090.38
2022-11-06T02:13:52.303Z,98093.72
2022-11-06T02:15:53.623Z,98087.69
2022-11-06T02:17:55.004Z,98091.03
2022-11-06T02:19:56.313Z,98099.50
2022-11-06T02:21:57.610Z,98090.91
2022-11-06T02:23:58.936Z,98096.03
2022-11-06T02:26:00.254Z,98091.75
2022-11-06T02:28:03.364Z,98099.38
2022-11-06T02:30:04.652Z,98098.56
2022-11-06T02:32:06.978Z,98099.50
2022-11-06T02:34:08.324Z,98095.28
2022-11-06T02:36:09.803Z,98100.47
2022-11-06T02:38:11.311Z,98099.66
2022-11-06T02:40:12.892Z,98098.88
2022-11-06T02:42:14.169Z,98100.66
2022-11-06T02:44:15.477Z,98097.31
2022-11-06T02:46:16.804Z,98090.59
2022-11-06T02:48:18.115Z,98093.22
2022-11-06T02:50:19.389Z,98091.66
2022-11-06T02:52:20.939Z,98089.19
2022-11-06T02:54:22.210Z,98088.41
2022-11-06T02:56:23.489Z,98087.56
2022-11-06T02:58:24.790Z,98085.97
2022-11-06T03:00:26.115Z,98084.31
2022-11-06T03:02:27.478Z,98086.06
2022-11-06T03:04:28.854Z,98079.31
2022-11-06T03:06:30.242Z,98076.81
2022-11-06T03:08:31.838Z,98087.94
2022-11-06T03:10:33.133Z,98088.88
2022-11-06T03:12:34.473Z,98085.50
2022-11-06T03:14:35.805Z,98087.31
2022-11-06T03:16:37.150Z,98086.47
2022-11-06T03:18:38.421Z,98079.53
2022-11-06T03:20:39.692Z,98087.22
2022-11-06T03:22:40.948Z,98088.97
2022-11-06T03:24:42.226Z,98100.09
2022-11-06T03:26:43.600Z,98089.00
2022-11-06T03:28:44.913Z,98088.06
2022-11-06T03:30:46.206Z,98078.56
2022-11-06T03:32:47.508Z,98081.81
2022-11-06T03:34:48.792Z,98081.72
2022-11-06T03:36:50.065Z,98084.97
2022-11-06T03:38:51.350Z,98087.34
2022-11-06T03:40:52.653Z,98085.56
2022-11-06T03:42:54.234Z,98080.38
2022-11-06T03:44:55.524Z,98087.09
2022-11-06T03:46:56.861Z,98082.75
2022-11-06T03:48:58.215Z,98086.91
2022-11-06T03:50:59.484Z,98077.50
2022-11-06T03:53:00.804Z,98080.91
2022-11-06T03:55:02.121Z,98080.09
2022-11-06T03:57:03.401Z,98081.84
2022-11-06T03:59:04.796Z,98083.56
2022-11-06T04:01:06.798Z,98083.53
2022-11-06T04:03:08.174Z,98078.34
2022-11-06T04:05:09.602Z,98084.38
2022-11-06T04:07:10.882Z,98075.88
2022-11-06T04:09:30.941Z,98078.50
2022-11-06T04:11:50.652Z,98074.31
2022-11-06T04:13:57.743Z,98075.28
2022-11-06T04:15:59.303Z,98079.66
2022-11-06T04:18:00.612Z,98076.38
2022-11-06T04:20:01.935Z,98072.19
2022-11-06T04:22:03.225Z,98071.44
2022-11-06T04:24:22.969Z,98065.59
2022-11-06T04:26:36.208Z,98069.03
2022-11-06T04:28:37.617Z,98069.09
2022-11-06T04:30:38.934Z,98067.47
2022-11-06T04:32:40.271Z,98060.78
2022-11-06T04:34:41.545Z,98059.22
2022-11-06T04:36:42.854Z,98062.69
2022-11-06T04:38:44.135Z,98056.78
2022-11-06T04:40:45.401Z,98069.63
2022-11-06T04:42:46.794Z,98060.31
2022-11-06T04:44:48.826Z,98059.50
2022-11-06T04:46:50.105Z,98061.22
2022-11-06T04:48:51.616Z,98058.72
2022-11-06T04:50:52.971Z,98057.00
2022-11-06T04:52:54.264Z,98062.06
2022-11-06T04:54:55.545Z,98058.63
2022-11-06T04:56:56.814Z,98051.75
2022-11-06T04:58:58.230Z,98057.59
2022-11-06T05:00:59.638Z,98052.31
2022-11-06T05:03:00.960Z,98041.97
2022-11-06T05:05:02.269Z,98050.34
2022-11-06T05:07:03.551Z,98046.88
2022-11-06T05:09:04.863Z,98047.59
2022-11-06T05:11:06.526Z,98044.84
2022-11-06T05:13:07.802Z,98045.53
2022-11-06T05:15:09.308Z,98042.00
2022-11-06T05:17:10.624Z,98037.75
2022-11-06T05:19:11.935Z,98036.81
2022-11-06T05:21:31.945Z,98039.38
2022-11-06T05:23:33.469Z,98040.97
2022-11-06T05:25:34.820Z,98034.94
2022-11-06T05:27:36.105Z,98032.44
2022-11-06T05:29:37.447Z,98044.34
2022-11-06T05:31:38.715Z,98033.28
2022-11-06T05:33:39.974Z,98049.53
2022-11-06T05:35:41.637Z,98044.50
2022-11-06T05:37:42.913Z,98033.47
2022-11-06T05:39:44.235Z,98042.06
2022-11-06T05:41:45.514Z,98048.16
2022-11-06T05:43:46.932Z,98044.72
2022-11-06T05:45:48.277Z,98042.25
2022-11-06T05:47:49.561Z,98040.66
2022-11-06T05:49:50.833Z,98043.28
2022-11-06T05:51:52.151Z,98046.75
2022-11-06T05:53:53.419Z,98051.13
2022-11-06T05:55:54.729Z,98051.19
2022-11-06T05:57:56.040Z,98046.97
2022-11-06T05:59:57.327Z,98045.31
2022-11-06T06:01:59.610Z,98043.69
2022-11-06T06:04:01.175Z,98038.69
2022-11-06T06:06:02.485Z,98039.59
2022-11-06T06:08:03.832Z,98040.56
2022-11-06T06:10:05.101Z,98035.50
2022-11-06T06:12:06.358Z,98043.22
2022-11-06T06:14:07.650Z,98033.88
2022-11-06T06:16:08.980Z,98027.97
2022-11-06T06:18:10.638Z,98039.94
2022-11-06T06:20:12.081Z,98046.81
2022-11-06T06:22:13.361Z,98045.09
2022-11-06T06:24:14.668Z,98050.19
2022-11-06T06:26:15.952Z,98049.19
2022-11-06T06:28:17.280Z,98044.78
2022-11-06T06:30:18.820Z,98048.91
2022-11-06T06:32:20.720Z,98047.88
2022-11-06T06:34:22.220Z,98049.53
2022-11-06T06:36:23.513Z,98046.06
2022-11-06T06:38:26.017Z,98053.63
2022-11-06T06:40:27.501Z,98048.44
2022-11-06T06:42:31.280Z,98054.28
2022-11-06T06:44:32.868Z,98056.69
2022-11-06T06:46:34.216Z,98049.78
2022-11-06T06:48:35.553Z,98051.50
2022-11-06T06:50:36.993Z,98056.66
2022-11-06T06:52:38.306Z,98059.94
2022-11-06T06:54:40.068Z,98066.69
2022-11-06T06:56:41.543Z,98055.63
2022-11-06T06:58:42.913Z,98059.03
2022-11-06T07:00:44.236Z,98066.81
2022-11-06T07:02:45.572Z,98068.53
2022-11-06T07:04:46.914Z,98072.00
2022-11-06T07:06:48.209Z,98079.66
2022-11-06T07:08:49.481Z,98081.47
2022-11-06T07:10:50.777Z,98085.75
2022-11-06T07:12:52.050Z,98077.28
2022-11-06T07:14:53.365Z,98081.59
2022-11-06T07:16:54.633Z,98083.41
2022-11-06T07:18:58.832Z,98091.16
2022-11-06T07:21:00.171Z,98098.91
2022-11-06T07:23:01.445Z,98083.56
2022-11-06T07:25:02.770Z,98086.97
2022-11-06T07:27:04.744Z,98092.94
2022-11-06T07:29:06.069Z,98091.28
2022-11-06T07:31:07.337Z,98093.09
2022-11-06T07:33:08.779Z,98088.97
2022-11-06T07:35:10.044Z,98087.31
2022-11-06T07:37:11.356Z,98094.19
2022-11-06T07:39:12.677Z,98094.28
2022-11-06T07:41:13.949Z,98098.59
2022-11-06T07:43:15.430Z,98091.84
2022-11-06T07:45:16.788Z,98098.75
2022-11-06T07:47:18.052Z,98103.00
2022-11-06T07:49:19.367Z,98094.47
2022-11-06T07:51:20.636Z,98096.22
2022-11-06T07:53:21.975Z,98097.84
2022-11-06T07:55:23.249Z,98102.00
2022-11-06T07:57:24.511Z,98099.31
2022-11-06T07:59:25.820Z,98100.78
2022-11-06T08:01:27.160Z,98100.59
2022-11-06T08:03:30.280Z,98099.44
2022-11-06T08:05:32.802Z,98098.50
2022-11-06T08:07:34.065Z,98106.13
2022-11-06T08:09:35.334Z,98140.88
2022-11-06T08:11:36.808Z,98105.13
2022-11-06T08:13:38.164Z,98104.81
2022-11-06T08:15:39.801Z,97972.34
2022-11-06T08:17:41.087Z,98090.81
2022-11-06T08:19:42.440Z,98094.50
2022-11-06T08:21:43.711Z,98097.22
2022-11-06T08:23:45.010Z,98098.28
2022-11-06T08:25:46.358Z,98096.13
2022-11-06T08:27:47.637Z,98098.03
2022-11-06T08:29:48.908Z,98097.31
2022-11-06T08:31:53.237Z,98096.53
2022-11-06T08:33:54.552Z,98087.16
2022-11-06T08:35:55.834Z,98088.84
2022-11-06T08:37:57.145Z,98088.84
2022-11-06T08:39:58.489Z,98093.97
2022-11-06T08:41:59.808Z,98093.22
2022-11-06T08:44:03.986Z,98095.03
2022-11-06T08:46:05.320Z,98098.44
2022-11-06T08:48:07.293Z,98097.66
2022-11-06T08:50:08.638Z,98086.59
2022-11-06T08:52:10.821Z,98089.09
2022-11-06T08:54:12.297Z,98087.22
2022-11-06T08:56:14.296Z,98079.53
2022-11-06T08:58:15.676Z,98070.88
2022-11-06T09:00:17.011Z,98068.31
2022-11-06T09:02:18.353Z,98064.81
2022-11-06T09:04:19.667Z,98058.84
2022-11-06T09:06:20.938Z,98058.03
2022-11-06T09:08:25.204Z,98056.34
2022-11-06T09:10:26.477Z,98057.16
2022-11-06T09:12:27.829Z,98046.94
2022-11-06T09:14:29.104Z,98049.50
2022-11-06T09:16:33.081Z,98038.47
2022-11-06T09:18:34.409Z,98046.22
2022-11-06T09:20:35.688Z,98038.63
2022-11-06T09:22:36.970Z,98043.69
2022-11-06T09:25:02.128Z,98036.88
2022-11-06T09:26:59.806Z,98042.03
2022-11-06T09:29:01.104Z,98041.91
2022-11-06T09:31:02.433Z,98040.13
2022-11-06T09:33:03.720Z,98032.47
2022-11-06T09:35:05.034Z,98035.75
2022-11-06T09:37:06.312Z,98034.06
2022-11-06T09:39:07.628Z,98029.72
2022-11-06T09:41:08.889Z,98027.88
2022-11-06T09:43:10.326Z,98027.72
2022-11-06T09:45:11.737Z,98024.50
2022-11-06T09:47:13.225Z,98026.91
2022-11-06T09:49:14.501Z,98028.56
2022-11-06T09:51:15.773Z,98034.66
2022-11-06T09:53:17.508Z,98033.44
2022-11-06T09:55:19.751Z,98027.19
2022-11-06T09:57:21.180Z,98018.59
2022-11-06T09:59:22.459Z,98015.84
2022-11-06T10:01:27.283Z,98024.06
2022-11-06T10:03:29.021Z,98022.75
2022-11-06T10:05:30.360Z,98018.38
2022-11-06T10:07:31.620Z,98012.88
2022-11-06T10:09:35.638Z,98004.16
2022-11-06T10:11:36.963Z,98003.91
2022-11-06T10:13:38.221Z,98010.84
2022-11-06T10:15:39.805Z,98000.66
2022-11-06T10:17:41.082Z,98012.41
2022-11-06T10:19:42.570Z,98006.91
2022-11-06T10:21:43.933Z,98000.94
2022-11-06T10:23:45.257Z,98003.31
2022-11-06T10:25:46.560Z,98001.63
2022-11-06T10:27:48.080Z,98001.03
2022-11-06T10:29:49.397Z,97999.19
2022-11-06T10:31:50.706Z,97997.31
2022-11-06T10:33:52.033Z,97994.94
2022-11-06T10:35:53.362Z,97992.72
2022-11-06T10:37:54.862Z,97988.66
2022-11-06T10:39:56.184Z,97988.00
2022-11-06T10:41:57.476Z,97986.41
2022-11-06T10:43:58.783Z,97981.72
2022-11-06T10:46:00.105Z,97975.06
2022-11-06T10:48:03.464Z,97980.56
2022-11-06T10:50:04.746Z,97975.88
2022-11-06T10:52:08.830Z,97975.16
2022-11-06T10:54:10.477Z,97977.25
2022-11-06T10:56:13.743Z,97972.16
2022-11-06T10:58:17.185Z,97960.69
2022-11-06T11:00:21.695Z,97844.81
2022-11-06T11:02:23.075Z,97948.81
2022-11-06T11:04:24.393Z,97943.56
2022-11-06T11:06:25.693Z,97937.44
2022-11-06T11:08:26.995Z,97935.47
2022-11-06T11:10:28.519Z,97935.13
2022-11-06T11:12:29.792Z,97923.44
2022-11-06T11:14:31.093Z,97923.66
2022-11-06T11:16:32.412Z,97926.34
2022-11-06T11:18:34.461Z,97924.69
2022-11-06T11:20:35.838Z,97919.56
2022-11-06T11:22:37.220Z,97908.56
2022-11-06T11:24:38.527Z,97909.50
2022-11-06T11:26:39.873Z,97908.72
2022-11-06T11:28:41.179Z,97902.03
2022-11-06T11:30:42.480Z,97903.84
2022-11-06T11:32:44.021Z,97904.84
2022-11-06T11:34:49.392Z,97899.88
2022-11-06T11:36:52.837Z,97887.25
2022-11-06T11:38:54.213Z,97893.34
2022-11-06T11:40:55.592Z,97888.31
2022-11-06T11:42:56.848Z,97884.97
2022-11-06T11:44:58.167Z,97878.25
2022-11-06T11:46:59.424Z,97882.63
2022-11-06T11:49:02.256Z,97879.28
2022-11-06T11:51:03.528Z,97870.88
2022-11-06T11:53:09.920Z,97879.44
2022-11-06T11:55:11.903Z,97880.44
2022-11-06T11:57:13.172Z,97871.16
2022-11-06T11:59:14.622Z,97868.69
2022-11-06T12:01:15.903Z,97868.78
2022-11-06T12:03:17.223Z,97864.63
2022-11-06T12:05:18.510Z,97860.44
2022-11-06T12:07:19.789Z,97864.78
2022-11-06T12:09:21.065Z,97851.25
2022-11-06T12:11:22.371Z,97851.34
2022-11-06T12:13:23.849Z,97843.75
2022-11-06T12:15:25.168Z,97850.72
2022-11-06T12:17:26.615Z,97837.22
2022-11-06T12:19:27.888Z,97844.97
2022-11-06T12:21:29.182Z,97836.56
2022-11-06T12:23:33.509Z,97834.03
2022-11-06T12:25:34.841Z,97825.53
2022-11-06T12:27:36.132Z,97830.06
2022-11-06T12:29:43.442Z,97827.47
2022-11-06T12:31:44.784Z,97820.50
2022-11-06T12:34:05.831Z,97818.59
2022-11-06T12:36:07.410Z,97822.66
2022-11-06T12:38:11.708Z,97825.91
2022-11-06T12:40:13.805Z,97826.69
2022-11-06T12:42:15.125Z,97822.34
2022-11-06T12:44:17.095Z,97820.41
2022-11-06T12:46:18.447Z,97810.06
2022-11-06T12:48:19.746Z,97809.13
2022-11-06T12:50:21.072Z,97815.00
2022-11-06T12:52:22.569Z,97821.19
2022-11-06T12:54:24.661Z,97813.41
2022-11-06T12:56:25.929Z,97820.03
2022-11-06T12:58:27.215Z,97814.78
2022-11-06T13:00:31.410Z,97818.75
2022-11-06T13:02:33.143Z,97816.41
2022-11-06T13:04:34.490Z,97801.66
2022-11-06T13:06:36.033Z,97792.63
2022-11-06T13:08:37.289Z,97797.13
2022-11-06T13:10:38.588Z,97798.97
2022-11-06T13:12:39.866Z,97795.69
2022-11-06T13:14:41.141Z,97793.34
2022-11-06T13:16:42.468Z,97799.38
2022-11-06T13:18:43.722Z,97802.91
2022-11-06T13:20:44.980Z,97808.81
2022-11-06T13:22:49.417Z,97809.00
2022-11-06T13:24:50.690Z,97808.97
2022-11-06T13:26:52.037Z,97814.00
2022-11-06T13:28:57.055Z,97807.28
2022-11-06T13:30:59.119Z,97802.84
2022-11-06T13:33:01.287Z,97798.47
2022-11-06T13:35:02.568Z,97814.00
2022-11-06T13:37:03.857Z,97807.34
2022-11-06T13:39:05.316Z,97801.13
2022-11-06T13:41:06.638Z,97797.69
2022-11-06T13:43:07.965Z,97791.66
2022-11-06T13:45:09.261Z,97787.22
2022-11-06T13:47:10.569Z,97789.81
2022-11-06T13:49:11.846Z,97793.69
2022-11-06T13:51:13.180Z,97793.66
2022-11-06T13:53:14.440Z,97791.06
2022-11-06T13:55:15.713Z,97670.34
2022-11-06T13:57:17.006Z,97782.84
2022-11-06T13:59:21.149Z,97779.47
2022-11-06T14:01:30.947Z,97783.13
2022-11-06T14:03:32.317Z,97782.53
2022-11-06T14:05:33.584Z,97775.47
2022-11-06T14:07:34.862Z,97780.88
2022-11-06T14:09:39.137Z,97782.81
2022-11-06T14:11:40.392Z,97780.44
2022-11-06T14:13:41.848Z,97777.19
2022-11-06T14:15:43.705Z,97767.94
2022-11-06T14:17:44.989Z,97764.69
2022-11-06T14:19:50.683Z,97758.81
2022-11-06T14:21:58.324Z,97753.84
2022-11-06T14:23:59.612Z,97742.94
2022-11-06T14:26:00.928Z,97743.00
2022-11-06T14:28:02.193Z,97738.03
2022-11-06T14:30:05.379Z,97734.72
2022-11-06T14:32:08.594Z,97740.78
2022-11-06T14:34:10.309Z,97733.25
2022-11-06T14:36:11.834Z,97741.84
2022-11-06T14:38:13.543Z,97739.44
2022-11-06T14:40:14.990Z,97742.09
2022-11-06T14:42:16.323Z,97735.38
2022-11-06T14:44:17.597Z,97734.66
2022-11-06T14:46:22.327Z,97734.72
2022-11-06T14:48:24.287Z,97731.41
2022-11-06T14:50:25.958Z,97736.56
2022-11-06T14:52:27.228Z,97726.44
2022-11-06T14:54:28.552Z,97723.06
2022-11-06T14:56:29.841Z,97728.16
2022-11-06T14:58:31.146Z,97723.91
2022-11-06T15:00:35.297Z,97722.19
2022-11-06T15:02:37.384Z,97719.63
2022-11-06T15:04:38.749Z,97715.31
2022-11-06T15:06:40.153Z,97717.84
2022-11-06T15:08:41.427Z,97722.16
2022-11-06T15:10:42.737Z,97717.09
2022-11-06T15:12:44.109Z,97712.94
2022-11-06T15:14:45.401Z,97701.91
2022-11-06T15:16:47.296Z,97694.34
2022-11-06T15:18:51.626Z,97701.13
2022-11-06T15:20:52.892Z,97701.19
2022-11-06T15:22:54.153Z,97696.03
2022-11-06T15:24:55.437Z,97690.91
2022-11-06T15:26:56.727Z,97686.59
2022-11-06T15:28:58.001Z,97683.13
2022-11-06T15:30:59.325Z,97687.31
2022-11-06T15:33:00.602Z,97672.00
2022-11-06T15:35:01.895Z,97675.75
2022-11-06T15:37:08.993Z,97673.28
2022-11-06T15:39:10.274Z,97668.28
2022-11-06T15:41:11.541Z,97671.66
2022-11-06T15:43:13.119Z,97669.16
2022-11-06T15:45:15.707Z,97663.25
2022-11-06T15:47:16.993Z,97664.91
2022-11-06T15:49:21.537Z,97658.09
2022-11-06T15:51:23.086Z,97648.78
2022-11-06T15:53:24.368Z,97649.66
2022-11-06T15:55:25.734Z,97637.31
2022-11-06T15:57:27.007Z,97642.66
2022-11-06T15:59:28.282Z,97638.69
2022-11-06T16:01:30.363Z,97642.59
2022-11-06T16:03:32.169Z,97641.72
2022-11-06T16:05:33.606Z,97630.50
2022-11-06T16:07:35.234Z,97641.31
2022-11-06T16:09:36.562Z,97624.25
2022-11-06T16:11:37.845Z,97626.63
2022-11-06T16:13:39.165Z,97625.56
2022-11-06T16:15:40.800Z,97625.41
2022-11-06T16:17:46.176Z,97626.19
2022-11-06T16:19:50.644Z,97630.38
2022-11-06T16:21:56.294Z,97627.88
2022-11-06T16:23:57.590Z,97630.59
2022-11-06T16:25:58.905Z,97634.00
2022-11-06T16:28:00.241Z,97631.53
2022-11-06T16:30:03.177Z,97635.97
2022-11-06T16:32:04.465Z,97632.63
2022-11-06T16:34:05.795Z,97621.66
2022-11-06T16:36:07.072Z,97632.75
2022-11-06T16:38:38.622Z,97629.44
2022-11-06T16:40:32.415Z,97628.66
2022-11-06T16:42:38.726Z,97632.94
2022-11-06T16:44:40.037Z,97629.63
2022-11-06T16:46:41.317Z,97625.38
2022-11-06T16:48:43.136Z,97630.56
2022-11-06T16:50:44.537Z,97629.72
2022-11-06T16:52:54.953Z,97635.75
2022-11-06T16:54:56.321Z,97628.09
2022-11-06T16:56:57.589Z,97626.41
2022-11-06T16:58:59.372Z,97628.13
2022-11-06T17:01:00.758Z,97625.72
2022-11-06T17:03:02.328Z,97632.53
2022-11-06T17:05:04.360Z,97630.81
2022-11-06T17:07:05.688Z,97629.19
2022-11-06T17:09:09.682Z,97626.66
2022-11-06T17:11:11.313Z,97620.84
2022-11-06T17:13:13.520Z,97629.53
2022-11-06T17:15:19.336Z,97633.91
2022-11-06T17:17:20.591Z,97622.91
2022-11-06T17:19:21.877Z,97615.34
2022-11-06T17:21:23.198Z,97608.53
2022-11-06T17:23:24.745Z,97601.56
2022-11-06T17:25:26.085Z,97601.28
2022-11-06T17:27:27.428Z,97592.34
2022-11-06T17:29:31.644Z,97598.88
2022-11-06T17:31:32.937Z,97605.38
2022-11-06T17:33:34.646Z,97604.28
2022-11-06T17:35:36.164Z,97604.03
2022-11-06T17:37:37.520Z,97598.81
2022-11-06T17:39:38.843Z,97592.66
2022-11-06T17:41:40.274Z,97594.25
2022-11-06T17:43:41.578Z,97590.69
2022-11-06T17:45:42.900Z,97582.94
2022-11-06T17:47:44.190Z,97578.63
2022-11-06T17:49:59.081Z,97575.13
2022-11-06T17:52:00.790Z,97587.03
2022-11-06T17:54:02.257Z,97582.00
2022-11-06T17:56:07.045Z,97578.50
2022-11-06T17:58:08.337Z,97576.50
2022-11-06T18:00:11.435Z,97584.41
2022-11-06T18:02:12.940Z,97579.34
2022-11-06T18:04:14.333Z,97585.75
2022-11-06T18:06:19.419Z,97575.31
2022-11-06T18:08:20.695Z,97576.38
2022-11-06T18:10:30.685Z,97576.09
2022-11-06T18:12:32.233Z,97575.00
2022-11-06T18:14:33.500Z,97581.88
2022-11-06T18:16:43.586Z,97570.91
2022-11-06T18:18:45.320Z,97573.38
2022-11-06T18:20:46.673Z,97570.50
2022-11-06T18:22:51.109Z,97573.09
2022-11-06T18:24:52.384Z,97566.06
2022-11-06T18:26:54.426Z,97581.97
2022-11-06T18:28:55.739Z,97576.56
2022-11-06T18:30:57.443Z,97568.25
2022-11-06T18:33:10.813Z,97565.03
2022-11-06T18:35:15.143Z,97563.31
2022-11-06T18:37:17.468Z,97563.25
2022-11-06T18:39:27.678Z,97565.81
2022-11-06T18:41:32.125Z,97567.59
2022-11-06T18:43:33.444Z,97572.91
2022-11-06T18:45:37.547Z,97565.94
2022-11-06T18:47:39.012Z,97572.72
2022-11-06T18:49:49.280Z,97569.03
2022-11-06T18:51:56.710Z,97565.66
2022-11-06T18:54:00.751Z,97571.19
2022-11-06T18:56:11.388Z,97568.66
2022-11-06T18:58:30.731Z,97560.44
2022-11-06T19:00:47.489Z,97564.81
2022-11-06T19:02:49.644Z,97565.66
2022-11-06T19:04:51.883Z,97574.66
2022-11-06T19:07:02.096Z,97566.00
2022-11-06T19:09:06.146Z,97575.69
2022-11-06T19:11:08.244Z,97565.56
2022-11-06T19:13:25.457Z,97568.69
2022-11-06T19:16:03.804Z,97566.34
2022-11-06T19:18:08.521Z,97564.00
2022-11-06T19:20:20.188Z,97553.03
2022-11-06T19:22:21.457Z,97559.84
2022-11-06T19:24:29.026Z,97553.31
2022-11-06T19:26:39.479Z,97547.72
2022-11-06T19:28:44.589Z,97541.41
2022-11-06T19:30:45.855Z,97548.59
2022-11-06T19:32:56.066Z,97549.13
2022-11-06T19:35:03.337Z,97544.84
2022-11-06T19:37:05.503Z,97551.13
2022-11-06T19:39:07.280Z,97546.00
2022-11-06T19:41:11.341Z,97541.69
2022-11-06T19:43:13.828Z,97538.13
2022-11-06T19:45:18.365Z,97531.94
2022-11-06T19:47:19.641Z,97533.00
2022-11-06T19:49:21.005Z,97526.56
2022-11-06T19:51:22.370Z,97535.53
2022-11-06T19:53:26.696Z,97529.38
2022-11-06T19:55:28.119Z,97528.53
2022-11-06T19:57:30.523Z,97530.38
2022-11-06T19:59:31.946Z,97533.06
2022-11-06T20:01:34.465Z,97533.66
2022-11-06T20:03:37.893Z,97527.72
2022-11-06T20:05:39.442Z,97523.50
2022-11-06T20:07:43.574Z,97526.06
2022-11-06T20:09:44.854Z,97527.91
2022-11-06T20:11:46.217Z,97518.44
2022-11-06T20:13:53.717Z,97518.59
2022-11-06T20:15:54.975Z,97512.44
2022-11-06T20:17:56.269Z,97514.97
2022-11-06T20:20:00.517Z,97514.03
2022-11-06T20:22:02.442Z,97514.00
2022-11-06T20:24:03.741Z,97508.81
2022-11-06T20:26:05.040Z,97510.00
2022-11-06T20:28:06.634Z,97523.75
2022-11-06T20:30:07.916Z,97507.75
2022-11-06T20:32:09.800Z,97506.56
2022-11-06T20:34:11.180Z,97494.38
2022-11-06T20:36:12.766Z,97506.00
2022-11-06T20:38:17.156Z,97505.78
2022-11-06T20:40:18.424Z,97521.72
2022-11-06T20:42:19.782Z,97515.69
2022-11-06T20:44:21.093Z,97518.34
2022-11-06T20:46:22.683Z,97522.31
2022-11-06T20:48:26.889Z,97525.09
2022-11-06T20:50:28.160Z,97514.97
2022-11-06T20:52:29.589Z,97506.59
2022-11-06T20:54:30.881Z,97510.97
2022-11-06T20:56:32.157Z,97502.31
2022-11-06T20:58:33.597Z,97508.56
2022-11-06T21:00:34.873Z,97508.81
2022-11-06T21:02:36.287Z,97499.94
2022-11-06T21:04:37.673Z,97495.34
2022-11-06T21:06:39.289Z,97508.63
2022-11-06T21:08:40.616Z,97500.59
2022-11-06T21:10:41.938Z,97499.56
2022-11-06T21:12:44.036Z,97491.88
2022-11-06T21:14:45.619Z,97484.59
2022-11-06T21:16:47.116Z,97485.56
2022-11-06T21:18:48.427Z,97472.06
2022-11-06T21:20:49.706Z,97464.06
2022-11-06T21:22:50.980Z,97464.38
2022-11-06T21:24:52.285Z,97465.81
2022-11-06T21:26:55.818Z,97466.84
2022-11-06T21:28:57.089Z,97458.50
2022-11-06T21:30:58.412Z,97437.50
2022-11-06T21:32:59.749Z,97456.16
2022-11-06T21:35:01.042Z,97467.72
2022-11-06T21:37:03.082Z,97466.53
2022-11-06T21:39:04.539Z,97461.06
2022-11-06T21:41:06.160Z,97454.78
2022-11-06T21:43:07.953Z,97458.06
2022-11-06T21:45:14.573Z,97456.59
2022-11-06T21:47:16.160Z,97456.38
2022-11-06T21:49:17.698Z,97457.81
2022-11-06T21:51:19.075Z,97455.16
2022-11-06T21:53:39.281Z,97456.59
2022-11-06T21:55:58.866Z,97458.28
2022-11-06T21:58:00.821Z,97451.34
2022-11-06T22:00:02.146Z,97446.97
2022-11-06T22:02:03.505Z,97453.13
2022-11-06T22:04:04.886Z,97452.03
2022-11-06T22:06:06.206Z,97448.78
2022-11-06T22:08:07.500Z,97447.72
2022-11-06T22:10:08.778Z,97439.25
2022-11-06T22:12:10.045Z,97447.06
2022-11-06T22:14:11.328Z,97319.19
2022-11-06T22:16:12.732Z,97441.34
2022-11-06T22:18:14.454Z,97443.09
2022-11-06T22:20:16.283Z,97441.09
2022-11-06T22:22:17.553Z,97441.69
2022-11-06T22:24:18.884Z,97438.19
2022-11-06T22:26:20.171Z,97440.63
2022-11-06T22:28:21.446Z,97427.84
2022-11-06T22:30:22.700Z,97433.06
2022-11-06T22:32:23.974Z,97429.78
2022-11-06T22:34:25.317Z,97429.78
2022-11-06T22:36:26.658Z,97431.56
2022-11-06T22:38:27.965Z,97433.28
2022-11-06T22:40:29.261Z,97440.19
2022-11-06T22:42:30.531Z,97436.03
2022-11-06T22:44:32.856Z,97421.94
2022-11-06T22:46:34.604Z,97435.88
2022-11-06T22:48:36.046Z,97440.28
2022-11-06T22:50:37.322Z,97435.16
2022-11-06T22:52:38.650Z,97421.22
2022-11-06T22:54:39.941Z,97417.31
2022-11-06T22:56:41.266Z,97410.03
2022-11-06T22:58:42.592Z,97416.38
2022-11-06T23:00:43.907Z,97408.50
2022-11-06T23:02:45.230Z,97403.31
2022-11-06T23:04:46.581Z,97403.84
2022-11-06T23:06:47.911Z,97402.66
2022-11-06T23:08:49.187Z,97399.09
2022-11-06T23:10:50.544Z,97400.59
2022-11-06T23:12:51.826Z,97397.84
2022-11-06T23:14:53.394Z,97394.13
2022-11-06T23:16:57.779Z,97382.06
2022-11-06T23:18:59.058Z,97363.94
2022-11-06T23:21:00.324Z,97374.53
2022-11-06T23:23:01.638Z,97395.88
2022-11-06T23:25:02.940Z,97411.25
2022-11-06T23:27:04.241Z,97417.94
2022-11-06T23:29:05.577Z,97410.91
2022-11-06T23:31:07.015Z,97399.78
2022-11-06T23:33:08.337Z,97389.47
2022-11-06T23:35:13.292Z,97383.34
2022-11-06T23:37:15.500Z,97384.88
2022-11-06T23:39:17.009Z,97388.44
2022-11-06T23:41:36.970Z,97397.81
2022-11-06T23:43:38.226Z,97391.09
2022-11-06T23:45:48.546Z,97412.88
2022-11-06T23:47:50.248Z,97409.84
2022-11-06T23:49:51.564Z,97411.44
2022-11-06T23:51:52.901Z,97391.75
2022-11-06T23:53:54.198Z,97388.66
2022-11-06T23:55:55.597Z,97402.13
2022-11-06T23:57:56.982Z,97403.00
2022-11-06T23:59:58.322Z,97412.38
